Deva — A8OK3 — position and weather

sailwx.info

Track history (hours):
 
Tides and Currents Weather Stations Pressure Air Temp Water Temp Dewpoint Dewpoint Depression Visibility Wind Speed Wind Dir Waves Ship Positions

Deva

Last reported at 2017-Mar-30 12:33 UTC. Time now 2017-Mar-30 12:49 UTC.
Position N 24°27' E 117°59'.

Length 259 m; draft 8.1 m.

Type: Ship (hazmat cat A). MMSI: 636013644.

Date/timePositionNaut miles runAvg speedWind from/ knotsBaromVisibWave heightAir tempDewpointWater temp
2017-Mar-30 12:33N 24°27' E 117°59'1 0.7
2017-Mar-30 11:11N 24°27' E 117°58'0 0.0
2017-Mar-30 09:23N 24°27' E 117°58'0 0.0
2017-Mar-30 08:23N 24°27' E 117°58'0 0.0
2017-Mar-30 06:23N 24°27' E 117°58'0 0.0
2017-Mar-30 05:17N 24°27' E 117°58'0 0.0
2017-Mar-30 04:29N 24°27' E 117°58'0 0.0
2017-Mar-30 03:23N 24°27' E 117°58'0 0.0
2017-Mar-30 02:28N 24°27' E 117°58'0 0.0
2017-Mar-30 00:07N 24°27' E 117°58'0 0.0
2017-Mar-29 23:28N 24°27' E 117°58'3 3.6
2017-Mar-29 22:33N 24°26' E 118°02'1010.5
2017-Mar-29 21:33N 24°20' E 118°11'1111.1
2017-Mar-29 20:33N 24°11' E 118°18'3 3.3
2017-Mar-29 19:33N 24°08' E 118°19'1 1.2
2017-Mar-29 18:33N 24°06' E 118°18'1 1.0
2017-Mar-29 17:33N 24°07' E 118°19'0 0.4
2017-Mar-29 16:33N 24°08' E 118°19'7 7.3
2017-Mar-29 15:33N 24°02' E 118°25'  
2017-Mar-24 10:32N 01°15' E 104°05'6 6.3
2017-Mar-24 09:31N 01°17' E 103°59'0 0.1
2017-Mar-24 08:31N 01°17' E 103°59'0 0.0
2017-Mar-24 07:31N 01°17' E 103°59'0 0.0
2017-Mar-24 06:25N 01°17' E 103°59'0 0.0
2017-Mar-24 05:31N 01°17' E 103°59'0 0.0
2017-Mar-24 04:31N 01°17' E 103°59'0 0.0
2017-Mar-24 03:28N 01°17' E 103°59'0 0.1
2017-Mar-24 02:31N 01°17' E 103°59'0 0.1
2017-Mar-24 01:28N 01°17' E 103°59'0 0.1
2017-Mar-24 00:33N 01°17' E 103°59'0 0.1
2017-Mar-23 23:33N 01°17' E 103°59'7 6.5
2017-Mar-23 22:33N 01°14' E 103°53'6 6.0
2017-Mar-23 21:33N 01°10' E 103°49'1313.4
2017-Mar-23 20:33N 01°04' E 103°37'1514.6
2017-Mar-23 19:33N 01°11' E 103°24'6214.9
2017-Mar-23 15:23N 01°44' E 102°32'1214.7
2017-Mar-23 14:33N 01°50' E 102°20'  
Track history (hours):
 
Tides and Currents Weather Stations Pressure Air Temp Water Temp Dewpoint Dewpoint Depression Visibility Wind Speed Wind Dir Waves Ship Positions

Deva

Last reported at 2017-Mar-30 12:33 UTC. Time now 2017-Mar-30 12:49 UTC.
Position N 24°27' E 117°59'.

Length 259 m; draft 8.1 m.

Type: Ship (hazmat cat A). MMSI: 636013644.

Date/timePositionNaut miles runAvg speedWind from/ knotsBaromVisibWave heightAir tempDewpointWater temp
2017-Mar-30 12:33N 24°27' E 117°59'1 0.7
2017-Mar-30 11:11N 24°27' E 117°58'0 0.0
2017-Mar-30 09:23N 24°27' E 117°58'0 0.0
2017-Mar-30 08:23N 24°27' E 117°58'0 0.0
2017-Mar-30 06:23N 24°27' E 117°58'0 0.0
2017-Mar-30 05:17N 24°27' E 117°58'0 0.0
2017-Mar-30 04:29N 24°27' E 117°58'0 0.0
2017-Mar-30 03:23N 24°27' E 117°58'0 0.0
2017-Mar-30 02:28N 24°27' E 117°58'0 0.0
2017-Mar-30 00:07N 24°27' E 117°58'0 0.0
2017-Mar-29 23:28N 24°27' E 117°58'3 3.6
2017-Mar-29 22:33N 24°26' E 118°02'1010.5
2017-Mar-29 21:33N 24°20' E 118°11'1111.1
2017-Mar-29 20:33N 24°11' E 118°18'3 3.3
2017-Mar-29 19:33N 24°08' E 118°19'1 1.2
2017-Mar-29 18:33N 24°06' E 118°18'1 1.0
2017-Mar-29 17:33N 24°07' E 118°19'0 0.4
2017-Mar-29 16:33N 24°08' E 118°19'7 7.3
2017-Mar-29 15:33N 24°02' E 118°25'  
2017-Mar-24 10:32N 01°15' E 104°05'6 6.3
2017-Mar-24 09:31N 01°17' E 103°59'0 0.1
2017-Mar-24 08:31N 01°17' E 103°59'0 0.0
2017-Mar-24 07:31N 01°17' E 103°59'0 0.0
2017-Mar-24 06:25N 01°17' E 103°59'0 0.0
2017-Mar-24 05:31N 01°17' E 103°59'0 0.0
2017-Mar-24 04:31N 01°17' E 103°59'0 0.0
2017-Mar-24 03:28N 01°17' E 103°59'0 0.1
2017-Mar-24 02:31N 01°17' E 103°59'0 0.1
2017-Mar-24 01:28N 01°17' E 103°59'0 0.1
2017-Mar-24 00:33N 01°17' E 103°59'0 0.1
2017-Mar-23 23:33N 01°17' E 103°59'7 6.5
2017-Mar-23 22:33N 01°14' E 103°53'6 6.0
2017-Mar-23 21:33N 01°10' E 103°49'1313.4
2017-Mar-23 20:33N 01°04' E 103°37'1514.6
2017-Mar-23 19:33N 01°11' E 103°24'6214.9
2017-Mar-23 15:23N 01°44' E 102°32'1214.7
2017-Mar-23 14:33N 01°50' E 102°20'  

Dump ship's entire track history